Time;durP1;ratioP1;P1;durP2;ratioP2;P2;SDS_P1;SDS_P2;PMS_P1;PMS_P2;Temp;Humidity;BMP_temperature;BMP_pressure;BME280_temperature;BME280_humidity;BME280_pressure;Samples;Min_cycle;Max_cycle;Signal;HPM_P1;HPM_P2
2022/03/12 00:00:51;;;;;;;57.15;27.15;;;;;;;;;;340991;153;857065;-77
2022/03/12 00:01:54;;;;;;;57.49;26.33;;;;;;;;;;336755;155;857454;-77
2022/03/12 00:02:58;;;;;;;68.97;28.17;;;;;;;;;;342126;154;865807;-77
2022/03/12 00:04:00;;;;;;;63.71;30.26;;;;;;;;;;341393;156;865103;-77
2022/03/12 00:05:09;;;;;;;69.23;29.09;;;;;;;;;;326732;157;857368;-77
2022/03/12 00:06:12;;;;;;;66.32;28.26;;;;;;;;;;322763;163;857654;-78
2022/03/12 00:07:16;;;;;;;64.76;27.55;;;;;;;;;;329926;158;858388;-77
2022/03/12 00:08:17;;;;;;;65.71;28.26;;;;;;;;;;350893;151;856593;-78
2022/03/12 00:09:19;;;;;;;70.64;29.28;;;;;;;;;;339290;156;864644;-78
2022/03/12 00:10:22;;;;;;;63.75;28.96;;;;;;;;;;338977;156;864861;-78
2022/03/12 00:11:34;;;;;;;60.61;27.39;;;;;;;;;;332630;159;857683;-78
2022/03/12 00:12:36;;;;;;;60.92;27.95;;;;;;;;;;337675;154;857164;-77
2022/03/12 00:13:37;;;;;;;69.14;30.82;;;;;;;;;;342375;153;856945;-77
2022/03/12 00:14:39;;;;;;;78.25;30.59;;;;;;;;;;339012;155;857647;-76
2022/03/12 00:15:42;;;;;;;68.98;29.26;;;;;;;;;;338539;152;856814;-76
2022/03/12 00:16:44;;;;;;;63.36;27.24;;;;;;;;;;335688;157;857017;-79
2022/03/12 00:17:46;;;;;;;66.41;28.17;;;;;;;;;;345719;152;856821;-77
2022/03/12 00:18:52;;;;;;;70.73;29.06;;;;;;;;;;334527;158;856938;-77
2022/03/12 00:19:56;;;;;;;63.45;27.81;;;;;;;;;;328514;157;858169;-79
2022/03/12 00:21:05;;;;;;;70.92;29.01;;;;;;;;;;341043;153;857976;-77
2022/03/12 00:22:05;;;;;;;81.36;29.97;;;;;;;;;;353592;148;858398;-78
2022/03/12 00:23:10;;;;;;;68.29;30.87;;;;;;;;;;346348;153;865263;-77
2022/03/12 00:24:15;;;;;;;60.90;28.61;;;;;;;;;;331098;157;864654;-77
2022/03/12 00:25:21;;;;;;;69.84;28.94;;;;;;;;;;341371;150;856816;-77
2022/03/12 00:26:23;;;;;;;70.69;29.91;;;;;;;;;;341409;153;856909;-78
2022/03/12 00:27:25;;;;;;;59.00;28.57;;;;;;;;;;337760;155;857453;-79
2022/03/12 00:28:29;;;;;;;65.31;28.49;;;;;;;;;;326207;162;856920;-79
2022/03/12 00:29:31;;;;;;;66.72;29.36;;;;;;;;;;329362;160;857185;-79
2022/03/12 00:30:35;;;;;;;73.19;29.43;;;;;;;;;;329749;159;859358;-79
2022/03/12 00:31:37;;;;;;;64.43;28.77;;;;;;;;;;327761;156;857265;-79
2022/03/12 00:32:40;;;;;;;60.89;28.53;;;;;;;;;;344046;150;864865;-76
2022/03/12 00:33:42;;;;;;;62.26;28.01;;;;;;;;;;344625;152;857535;-77
2022/03/12 00:34:44;;;;;;;64.57;28.45;;;;;;;;;;332029;159;856822;-77
2022/03/12 00:35:47;;;;;;;64.17;29.92;;;;;;;;;;326229;158;864960;-78
2022/03/12 00:36:49;;;;;;;77.29;31.27;;;;;;;;;;332390;159;858298;-77
2022/03/12 00:37:51;;;;;;;72.69;32.06;;;;;;;;;;324079;160;857603;-77
2022/03/12 00:38:53;;;;;;;69.09;31.21;;;;;;;;;;340888;154;857391;-76
2022/03/12 00:39:56;;;;;;;78.63;33.39;;;;;;;;;;338125;157;864822;-75
2022/03/12 00:41:01;;;;;;;79.07;33.18;;;;;;;;;;331166;159;856914;-77
2022/03/12 00:42:03;;;;;;;82.96;33.53;;;;;;;;;;330829;157;858006;-77
2022/03/12 00:43:04;;;;;;;89.46;32.88;;;;;;;;;;341826;155;864920;-77
2022/03/12 00:44:08;;;;;;;76.06;31.75;;;;;;;;;;329125;161;857535;-77
2022/03/12 00:45:11;;;;;;;81.95;32.19;;;;;;;;;;324146;158;858980;-77
2022/03/12 00:46:15;;;;;;;84.82;33.09;;;;;;;;;;331704;158;856795;-77
2022/03/12 00:47:17;;;;;;;77.74;32.71;;;;;;;;;;324371;159;857149;-77
2022/03/12 00:48:20;;;;;;;77.78;31.66;;;;;;;;;;324711;161;865008;-77
2022/03/12 00:49:23;;;;;;;79.78;32.69;;;;;;;;;;325234;160;857583;-77
2022/03/12 00:50:26;;;;;;;77.82;33.32;;;;;;;;;;319613;160;858063;-76
2022/03/12 00:51:29;;;;;;;79.17;33.00;;;;;;;;;;326199;156;864194;-77
2022/03/12 00:52:31;;;;;;;82.68;32.09;;;;;;;;;;333057;158;857374;-79
2022/03/12 00:53:32;;;;;;;84.69;32.29;;;;;;;;;;340953;153;856782;-79
2022/03/12 00:54:36;;;;;;;76.11;32.60;;;;;;;;;;341454;155;857206;-79
2022/03/12 00:55:38;;;;;;;78.91;34.08;;;;;;;;;;343919;154;856775;-77
2022/03/12 00:56:40;;;;;;;88.43;34.63;;;;;;;;;;331944;158;856714;-79
2022/03/12 00:57:42;;;;;;;90.96;36.08;;;;;;;;;;339141;152;856734;-77
2022/03/12 00:58:46;;;;;;;94.44;35.28;;;;;;;;;;327374;160;857007;-77
2022/03/12 00:59:48;;;;;;;86.56;34.98;;;;;;;;;;321220;161;864643;-77
2022/03/12 01:00:50;;;;;;;85.04;34.64;;;;;;;;;;339440;154;856878;-77
2022/03/12 01:01:52;;;;;;;84.29;34.52;;;;;;;;;;338218;155;857722;-78
2022/03/12 01:02:56;;;;;;;82.82;32.97;;;;;;;;;;328961;160;858096;-77
2022/03/12 01:03:58;;;;;;;73.46;34.83;;;;;;;;;;332627;155;857337;-76
2022/03/12 01:05:00;;;;;;;98.06;36.09;;;;;;;;;;333299;158;860899;-78
2022/03/12 01:06:03;;;;;;;89.23;35.04;;;;;;;;;;328650;161;864782;-78
2022/03/12 01:07:04;;;;;;;86.33;35.49;;;;;;;;;;331063;157;865000;-78
2022/03/12 01:08:29;;;;;;;91.79;35.39;;;;;;;;;;323173;162;857394;-78
2022/03/12 01:09:50;;;;;;;80.69;32.06;;;;;;;;;;342165;153;857390;-77
2022/03/12 01:11:04;;;;;;;85.41;33.47;;;;;;;;;;332733;159;856714;-76
2022/03/12 01:13:46;;;;;;;84.96;31.78;;;;;;;;;;349680;150;856596;-77
2022/03/12 01:14:49;;;;;;;84.25;32.38;;;;;;;;;;334862;157;856714;-78
2022/03/12 01:15:50;;;;;;;87.83;33.59;;;;;;;;;;322447;161;857770;-76
2022/03/12 01:16:54;;;;;;;89.41;34.57;;;;;;;;;;342309;151;864388;-77
2022/03/12 01:17:56;;;;;;;85.91;34.62;;;;;;;;;;338697;156;858183;-77
2022/03/12 01:18:58;;;;;;;91.10;34.67;;;;;;;;;;333133;157;864501;-78
2022/03/12 01:20:00;;;;;;;86.26;34.74;;;;;;;;;;334658;153;856971;-78
2022/03/12 01:21:17;;;;;;;82.54;36.53;;;;;;;;;;335164;156;864334;-77
2022/03/12 01:22:22;;;;;;;93.88;35.76;;;;;;;;;;331868;156;856641;-78
2022/03/12 01:23:29;;;;;;;76.78;34.44;;;;;;;;;;344124;150;858661;-79
2022/03/12 01:24:30;;;;;;;90.98;35.86;;;;;;;;;;351935;150;856806;-77
2022/03/12 01:25:31;;;;;;;92.09;35.01;;;;;;;;;;341043;153;856871;-77
2022/03/12 01:26:39;;;;;;;90.25;37.86;;;;;;;;;;336702;158;858528;-77
2022/03/12 01:27:39;;;;;;;91.37;37.52;;;;;;;;;;325210;157;864764;-76
2022/03/12 01:28:41;;;;;;;91.94;37.45;;;;;;;;;;353361;149;857959;-77
2022/03/12 01:29:43;;;;;;;86.76;36.21;;;;;;;;;;341922;154;864795;-78
2022/03/12 01:30:45;;;;;;;97.10;37.67;;;;;;;;;;345429;150;856715;-76
2022/03/12 01:31:47;;;;;;;85.32;36.08;;;;;;;;;;350047;152;856942;-78
2022/03/12 01:32:49;;;;;;;87.83;35.42;;;;;;;;;;342997;153;856840;-77
2022/03/12 01:33:51;;;;;;;91.79;37.74;;;;;;;;;;332259;159;856522;-77
2022/03/12 01:34:53;;;;;;;98.16;37.41;;;;;;;;;;329265;162;864913;-76
2022/03/12 01:35:55;;;;;;;104.65;39.05;;;;;;;;;;332873;158;857020;-77
2022/03/12 01:36:57;;;;;;;89.19;36.11;;;;;;;;;;327970;158;856682;-76
2022/03/12 01:38:01;;;;;;;86.11;36.19;;;;;;;;;;326051;160;857421;-77
2022/03/12 01:39:03;;;;;;;93.06;36.81;;;;;;;;;;326312;157;856795;-77
2022/03/12 01:40:06;;;;;;;89.25;37.71;;;;;;;;;;328866;159;857717;-75
2022/03/12 01:41:08;;;;;;;94.37;37.39;;;;;;;;;;318209;163;857903;-77
2022/03/12 01:42:13;;;;;;;94.16;38.01;;;;;;;;;;329833;153;858654;-77
2022/03/12 01:43:15;;;;;;;105.11;40.11;;;;;;;;;;345051;153;865305;-77
2022/03/12 01:44:17;;;;;;;90.06;37.85;;;;;;;;;;347701;151;856849;-77
2022/03/12 01:45:24;;;;;;;93.89;37.38;;;;;;;;;;336882;157;857327;-77
2022/03/12 01:46:34;;;;;;;102.18;40.02;;;;;;;;;;336476;153;857541;-78
2022/03/12 01:47:34;;;;;;;104.04;39.14;;;;;;;;;;337830;154;857218;-77
2022/03/12 01:48:42;;;;;;;100.56;38.84;;;;;;;;;;338091;156;857265;-77
2022/03/12 01:49:44;;;;;;;98.56;38.47;;;;;;;;;;331099;159;864508;-77
2022/03/12 01:50:46;;;;;;;103.06;38.73;;;;;;;;;;333976;155;856716;-77
2022/03/12 01:52:07;;;;;;;110.34;37.79;;;;;;;;;;339897;156;857081;-77
2022/03/12 01:53:10;;;;;;;104.74;38.26;;;;;;;;;;330956;156;857003;-78
2022/03/12 01:54:12;;;;;;;111.63;38.51;;;;;;;;;;328220;160;865506;-77
2022/03/12 01:55:15;;;;;;;106.55;39.06;;;;;;;;;;349557;152;857348;-77
2022/03/12 01:56:17;;;;;;;102.31;39.81;;;;;;;;;;340319;154;864706;-77
2022/03/12 01:57:19;;;;;;;94.11;39.87;;;;;;;;;;344366;153;864373;-77
2022/03/12 01:58:23;;;;;;;114.77;43.29;;;;;;;;;;338573;156;857267;-77
2022/03/12 01:59:26;;;;;;;108.57;42.01;;;;;;;;;;327499;155;857704;-77
2022/03/12 02:00:28;;;;;;;110.99;40.85;;;;;;;;;;334885;156;856993;-76
2022/03/12 02:01:30;;;;;;;117.13;42.19;;;;;;;;;;344755;154;859278;-77
2022/03/12 02:02:34;;;;;;;107.68;40.93;;;;;;;;;;336297;156;864670;-80
2022/03/12 02:03:36;;;;;;;119.09;42.58;;;;;;;;;;337429;155;859678;-76
2022/03/12 02:04:38;;;;;;;103.66;41.37;;;;;;;;;;344347;152;857465;-77
2022/03/12 02:05:40;;;;;;;109.04;42.47;;;;;;;;;;349731;151;857063;-78
2022/03/12 02:06:45;;;;;;;111.73;41.21;;;;;;;;;;339798;154;859084;-77
2022/03/12 02:07:46;;;;;;;109.76;44.19;;;;;;;;;;335209;157;857011;-77
2022/03/12 02:08:49;;;;;;;111.26;44.78;;;;;;;;;;333855;155;857636;-77
2022/03/12 02:09:51;;;;;;;103.78;41.96;;;;;;;;;;345862;149;864276;-77
2022/03/12 02:10:59;;;;;;;103.47;41.91;;;;;;;;;;343103;155;858019;-77
2022/03/12 02:12:06;;;;;;;113.32;42.14;;;;;;;;;;335602;151;864497;-77
2022/03/12 02:13:17;;;;;;;111.20;42.22;;;;;;;;;;352694;150;856751;-76
2022/03/12 02:14:34;;;;;;;107.21;39.94;;;;;;;;;;340504;154;857243;-77
2022/03/12 02:15:38;;;;;;;99.39;39.04;;;;;;;;;;337667;152;857389;-78
2022/03/12 02:16:43;;;;;;;102.65;39.60;;;;;;;;;;347677;151;857180;-77
2022/03/12 02:17:44;;;;;;;108.56;40.35;;;;;;;;;;347749;154;857969;-77
2022/03/12 02:18:48;;;;;;;102.08;38.13;;;;;;;;;;344354;153;857027;-77
2022/03/12 02:19:50;;;;;;;109.26;40.32;;;;;;;;;;345463;152;857094;-79
2022/03/12 02:20:53;;;;;;;102.55;40.63;;;;;;;;;;338590;155;858969;-80
2022/03/12 02:21:56;;;;;;;102.14;38.28;;;;;;;;;;334752;154;865987;-78
2022/03/12 02:22:59;;;;;;;98.06;37.54;;;;;;;;;;323902;162;857098;-78
2022/03/12 02:24:03;;;;;;;102.72;37.77;;;;;;;;;;322764;162;857637;-77
2022/03/12 02:25:05;;;;;;;97.46;39.04;;;;;;;;;;314171;163;864621;-77
2022/03/12 02:26:07;;;;;;;95.06;38.03;;;;;;;;;;332456;153;858597;-78
2022/03/12 02:27:12;;;;;;;91.03;37.64;;;;;;;;;;338125;158;865628;-76
2022/03/12 02:28:16;;;;;;;90.95;37.13;;;;;;;;;;326968;157;857465;-79
2022/03/12 02:29:20;;;;;;;86.38;34.64;;;;;;;;;;335920;156;857341;-77
2022/03/12 02:30:24;;;;;;;93.69;34.41;;;;;;;;;;335326;156;856928;-78
2022/03/12 02:31:26;;;;;;;82.55;33.53;;;;;;;;;;338812;155;858176;-77
2022/03/12 02:32:28;;;;;;;85.10;34.09;;;;;;;;;;330442;160;857171;-77
2022/03/12 02:33:30;;;;;;;86.05;34.01;;;;;;;;;;325145;154;857253;-78
2022/03/12 02:34:40;;;;;;;81.44;33.99;;;;;;;;;;337601;154;857826;-77
2022/03/12 02:35:44;;;;;;;71.44;31.94;;;;;;;;;;349080;149;856809;-80
2022/03/12 02:36:49;;;;;;;80.76;33.54;;;;;;;;;;346100;152;857795;-77
2022/03/12 02:37:52;;;;;;;81.56;34.32;;;;;;;;;;334763;155;856626;-77
2022/03/12 02:38:55;;;;;;;88.37;34.69;;;;;;;;;;335299;156;857601;-79
2022/03/12 02:39:58;;;;;;;90.27;35.03;;;;;;;;;;320569;162;857300;-77
2022/03/12 02:41:10;;;;;;;82.80;33.88;;;;;;;;;;325672;159;866303;-78
2022/03/12 02:42:06;;;;;;;83.28;34.21;;;;;;;;;;336271;154;858131;-77
2022/03/12 02:43:13;;;;;;;82.04;32.54;;;;;;;;;;330705;160;857037;-79
2022/03/12 02:44:17;;;;;;;79.01;32.35;;;;;;;;;;327732;160;856930;-78
2022/03/12 02:45:20;;;;;;;80.22;34.23;;;;;;;;;;335463;156;858077;-77
2022/03/12 02:46:25;;;;;;;81.31;33.73;;;;;;;;;;335769;156;856545;-77
2022/03/12 02:47:28;;;;;;;93.04;35.73;;;;;;;;;;337273;153;856956;-78
2022/03/12 02:48:30;;;;;;;81.02;33.36;;;;;;;;;;336712;158;865080;-77
2022/03/12 02:49:34;;;;;;;79.00;32.77;;;;;;;;;;327967;162;867015;-77
2022/03/12 02:50:37;;;;;;;81.32;33.56;;;;;;;;;;324296;158;857174;-78
2022/03/12 02:51:39;;;;;;;85.41;35.29;;;;;;;;;;337190;156;857061;-78
2022/03/12 02:52:42;;;;;;;87.75;34.84;;;;;;;;;;333142;156;857560;-78
2022/03/12 02:53:44;;;;;;;87.39;36.42;;;;;;;;;;338257;156;857523;-78
2022/03/12 02:55:05;;;;;;;;;;;;;;;;;;343221;153;864286;-78
2022/03/12 02:56:08;;;;;;;82.54;32.67;;;;;;;;;;351288;150;856630;-79
2022/03/12 02:57:10;;;;;;;88.11;34.64;;;;;;;;;;332609;158;857189;-77
2022/03/12 02:58:16;;;;;;;78.86;32.21;;;;;;;;;;314845;161;864784;-78
2022/03/12 02:59:16;;;;;;;81.49;34.52;;;;;;;;;;323452;157;856752;-78
2022/03/12 03:00:18;;;;;;;92.01;34.79;;;;;;;;;;349149;150;866750;-80
2022/03/12 03:01:22;;;;;;;78.97;33.29;;;;;;;;;;340132;154;865924;-77
2022/03/12 03:02:25;;;;;;;88.43;35.61;;;;;;;;;;332128;160;856758;-77
2022/03/12 03:03:29;;;;;;;81.81;35.70;;;;;;;;;;321325;158;864904;-78
2022/03/12 03:04:40;;;;;;;82.55;34.26;;;;;;;;;;337330;152;857148;-78
2022/03/12 03:05:46;;;;;;;90.78;35.04;;;;;;;;;;340411;155;864897;-78
2022/03/12 03:06:45;;;;;;;81.39;35.76;;;;;;;;;;336104;155;857401;-77
2022/03/12 03:07:54;;;;;;;80.69;33.89;;;;;;;;;;331537;157;856949;-77
2022/03/12 03:08:51;;;;;;;80.53;34.19;;;;;;;;;;336646;152;857097;-77
2022/03/12 03:09:53;;;;;;;83.59;33.39;;;;;;;;;;330009;160;864442;-77
2022/03/12 03:10:57;;;;;;;80.75;32.92;;;;;;;;;;321716;162;864660;-77
2022/03/12 03:12:03;;;;;;;84.39;36.72;;;;;;;;;;325601;156;859579;-79
2022/03/12 03:13:17;;;;;;;83.66;34.72;;;;;;;;;;336853;157;864627;-78
2022/03/12 03:14:23;;;;;;;76.89;33.34;;;;;;;;;;339116;156;857407;-77
2022/03/12 03:15:23;;;;;;;79.88;34.75;;;;;;;;;;335448;157;857815;-77
2022/03/12 03:16:25;;;;;;;85.15;33.65;;;;;;;;;;337429;157;857839;-77
2022/03/12 03:17:28;;;;;;;81.60;35.08;;;;;;;;;;322475;160;857500;-78
2022/03/12 03:18:34;;;;;;;78.09;33.68;;;;;;;;;;333902;157;865012;-78
2022/03/12 03:19:36;;;;;;;74.56;32.89;;;;;;;;;;342277;152;857329;-79
2022/03/12 03:20:38;;;;;;;80.19;34.41;;;;;;;;;;336940;155;857608;-77
2022/03/12 03:21:40;;;;;;;76.92;32.68;;;;;;;;;;331893;156;856982;-77
2022/03/12 03:22:42;;;;;;;78.63;31.92;;;;;;;;;;325363;161;856734;-77
2022/03/12 03:23:44;;;;;;;80.22;32.54;;;;;;;;;;315937;165;864569;-78
2022/03/12 03:24:47;;;;;;;74.11;31.07;;;;;;;;;;323843;159;864254;-78
2022/03/12 03:25:49;;;;;;;81.75;31.67;;;;;;;;;;323593;163;859040;-78
2022/03/12 03:26:53;;;;;;;74.82;31.08;;;;;;;;;;328980;159;856958;-77
2022/03/12 03:27:55;;;;;;;72.26;29.80;;;;;;;;;;336630;157;858862;-77
2022/03/12 03:28:56;;;;;;;73.86;29.21;;;;;;;;;;338315;156;858642;-78
2022/03/12 03:29:58;;;;;;;67.79;28.37;;;;;;;;;;332544;156;864150;-77
2022/03/12 03:31:00;;;;;;;67.89;28.53;;;;;;;;;;345190;151;866227;-76
2022/03/12 03:32:05;;;;;;;66.81;27.40;;;;;;;;;;337661;155;859052;-77
2022/03/12 03:33:09;;;;;;;80.78;29.77;;;;;;;;;;330954;159;857150;-79
2022/03/12 03:34:12;;;;;;;70.89;26.15;;;;;;;;;;348961;149;856977;-79
2022/03/12 03:35:14;;;;;;;61.44;24.35;;;;;;;;;;332894;158;857798;-79
2022/03/12 03:36:17;;;;;;;63.86;25.30;;;;;;;;;;327536;159;857104;-77
2022/03/12 03:37:20;;;;;;;59.03;25.75;;;;;;;;;;331821;158;866244;-77
2022/03/12 03:38:28;;;;;;;59.92;25.64;;;;;;;;;;329340;159;865833;-77
2022/03/12 03:39:28;;;;;;;71.72;27.84;;;;;;;;;;334679;156;858234;-77
2022/03/12 03:40:30;;;;;;;62.41;28.09;;;;;;;;;;340537;154;856757;-78
2022/03/12 03:41:33;;;;;;;56.30;25.50;;;;;;;;;;342344;154;864712;-77
2022/03/12 03:42:35;;;;;;;58.51;26.31;;;;;;;;;;324718;161;856629;-78
2022/03/12 03:43:37;;;;;;;62.11;24.90;;;;;;;;;;323692;155;857033;-78
2022/03/12 03:44:39;;;;;;;54.10;23.70;;;;;;;;;;347522;151;859182;-76
2022/03/12 03:45:42;;;;;;;58.81;24.41;;;;;;;;;;347246;154;858573;-77
2022/03/12 03:46:44;;;;;;;58.13;22.86;;;;;;;;;;339599;156;864545;-78
2022/03/12 03:47:46;;;;;;;56.59;24.29;;;;;;;;;;348241;150;864181;-76
2022/03/12 03:48:50;;;;;;;58.65;24.63;;;;;;;;;;337192;158;859158;-77
2022/03/12 03:49:52;;;;;;;56.19;23.26;;;;;;;;;;332346;161;856941;-77
2022/03/12 03:50:54;;;;;;;55.75;23.35;;;;;;;;;;327258;159;857009;-77
2022/03/12 03:51:58;;;;;;;61.01;23.14;;;;;;;;;;327167;162;857246;-77
2022/03/12 03:53:05;;;;;;;58.14;23.11;;;;;;;;;;342779;151;857028;-78
2022/03/12 03:54:08;;;;;;;59.89;24.53;;;;;;;;;;343326;152;857129;-77
2022/03/12 03:55:08;;;;;;;53.20;23.79;;;;;;;;;;333010;156;864500;-77
2022/03/12 03:56:10;;;;;;;59.09;23.23;;;;;;;;;;332240;155;866096;-78
2022/03/12 03:57:13;;;;;;;47.41;21.49;;;;;;;;;;326543;159;857186;-78
2022/03/12 03:58:19;;;;;;;57.01;23.05;;;;;;;;;;341992;154;864457;-77
2022/03/12 03:59:24;;;;;;;56.34;24.18;;;;;;;;;;334051;158;856975;-78
2022/03/12 04:00:26;;;;;;;41.21;19.69;;;;;;;;;;332523;155;858829;-78
2022/03/12 04:01:28;;;;;;;44.31;17.37;;;;;;;;;;337731;156;857044;-78
2022/03/12 04:02:30;;;;;;;52.33;20.69;;;;;;;;;;337204;158;864538;-77
2022/03/12 04:03:36;;;;;;;49.00;18.90;;;;;;;;;;337949;155;858069;-77
2022/03/12 04:04:40;;;;;;;47.11;20.81;;;;;;;;;;342712;155;866445;-78
2022/03/12 04:05:42;;;;;;;42.47;17.36;;;;;;;;;;336978;157;857748;-77
2022/03/12 04:06:44;;;;;;;31.79;15.19;;;;;;;;;;337957;154;858596;-78
2022/03/12 04:07:45;;;;;;;43.74;18.61;;;;;;;;;;348795;153;864436;-77
2022/03/12 04:08:48;;;;;;;43.86;20.17;;;;;;;;;;339691;154;864287;-77
2022/03/12 04:09:50;;;;;;;42.87;19.87;;;;;;;;;;331459;158;858741;-78
2022/03/12 04:10:51;;;;;;;53.81;21.10;;;;;;;;;;340365;154;857002;-77
2022/03/12 04:11:53;;;;;;;45.24;18.24;;;;;;;;;;354491;149;857121;-78
2022/03/12 04:12:56;;;;;;;56.77;22.30;;;;;;;;;;337910;156;864474;-79
2022/03/12 04:13:57;;;;;;;46.35;19.87;;;;;;;;;;327425;159;857273;-77
2022/03/12 04:14:59;;;;;;;41.07;17.74;;;;;;;;;;330197;159;857316;-77
2022/03/12 04:16:02;;;;;;;44.96;19.69;;;;;;;;;;335368;153;856729;-80
2022/03/12 04:17:04;;;;;;;46.89;19.05;;;;;;;;;;351772;150;864682;-79
2022/03/12 04:30:21;;;;;;;44.46;19.83;;;;;;;-6.68;63.45;101100.84;367419;145;879748;-77
2022/03/12 04:31:24;;;;;;;46.09;18.53;;;;;;;-6.70;63.45;101094.80;339631;157;856506;-78
2022/03/12 04:32:27;;;;;;;43.33;19.56;;;;;;;-6.65;63.17;101098.56;323171;161;856634;-77
2022/03/12 04:33:29;;;;;;;37.83;18.64;;;;;;;;;;329239;158;857738;-78
2022/03/12 04:34:34;;;;;;;40.76;18.61;;;;;;;;;;335523;152;857367;-76
2022/03/12 04:35:38;;;;;;;45.28;19.77;;;;;;;;;;340281;155;858672;-79
2022/03/12 04:36:46;;;;;;;45.21;20.35;;;;;;;;;;346534;155;857014;-77
2022/03/12 04:37:47;;;;;;;48.26;20.76;;;;;;;;;;339472;156;857637;-78
2022/03/12 04:38:51;;;;;;;40.01;19.69;;;;;;;;;;333837;155;857378;-77
2022/03/12 04:39:55;;;;;;;45.18;20.75;;;;;;;;;;334980;155;856758;-77
2022/03/12 04:40:58;;;;;;;47.12;19.91;;;;;;;;;;334725;155;858557;-77
2022/03/12 04:42:00;;;;;;;43.94;20.23;;;;;;;;;;342046;152;857382;-77
2022/03/12 04:43:04;;;;;;;49.51;20.41;;;;;;;;;;341623;155;856724;-77
2022/03/12 04:44:08;;;;;;;47.62;19.81;;;;;;;;;;328235;155;859240;-77
2022/03/12 04:45:10;;;;;;;46.31;20.26;;;;;;;;;;334335;157;866126;-77
2022/03/12 04:46:13;;;;;;;45.13;19.69;;;;;;;;;;322804;158;866097;-77
2022/03/12 04:47:15;;;;;;;49.92;20.23;;;;;;;;;;334358;155;865029;-77
2022/03/12 04:48:18;;;;;;;44.39;18.51;;;;;;;;;;337710;154;857764;-77
2022/03/12 04:49:21;;;;;;;44.23;19.17;;;;;;;;;;335578;155;857436;-77
2022/03/12 04:50:24;;;;;;;43.89;19.42;;;;;;;;;;330726;159;856891;-77
2022/03/12 04:51:27;;;;;;;45.61;19.58;;;;;;;;;;330933;158;857418;-78
2022/03/12 04:52:30;;;;;;;46.68;19.12;;;;;;;;;;328836;155;857147;-78
2022/03/12 04:53:32;;;;;;;41.28;18.40;;;;;;;;;;332570;159;857028;-76
2022/03/12 04:54:34;;;;;;;42.20;19.31;;;;;;;;;;321335;158;857191;-78
2022/03/12 04:55:37;;;;;;;42.72;18.40;;;;;;;;;;322491;158;856835;-78
2022/03/12 04:56:39;;;;;;;40.32;17.44;;;;;;;;;;327990;156;857382;-77
2022/03/12 04:57:41;;;;;;;46.90;18.92;;;;;;;;;;329197;161;856836;-78
2022/03/12 04:58:44;;;;;;;42.56;18.82;;;;;;;;;;336323;157;857147;-78
2022/03/12 04:59:50;;;;;;;42.90;20.07;;;;;;;-6.86;96.06;151311.41;342098;154;857567;-77
2022/03/12 05:00:52;;;;;;;46.27;18.29;;;;;;;;;;334455;158;857059;-79
2022/03/12 05:01:57;;;;;;;40.59;17.09;;;;;;;;;;328285;158;864290;-79
2022/03/12 05:03:10;;;;;;;44.02;18.77;;;;;;;;;;334754;152;857249;-79
2022/03/12 05:04:11;;;;;;;46.78;18.77;;;;;;;;;;343212;154;856848;-78
2022/03/12 05:05:15;;;;;;;46.88;18.81;;;;;;;;;;342443;155;856715;-77
2022/03/12 05:06:18;;;;;;;41.75;18.66;;;;;;;;;;325973;158;857372;-77
2022/03/12 05:07:23;;;;;;;42.49;18.89;;;;;;;;;;335173;152;858009;-77
2022/03/12 05:08:28;;;;;;;41.76;19.06;;;;;;;;;;340585;155;857524;-77
2022/03/12 05:09:30;;;;;;;43.04;19.19;;;;;;;;;;340822;155;857067;-77
2022/03/12 05:10:32;;;;;;;42.56;18.81;;;;;;;;;;335417;158;857029;-77
2022/03/12 05:11:36;;;;;;;41.88;18.90;;;;;;;;;;341462;152;857195;-77
2022/03/12 05:12:40;;;;;;;43.61;19.57;;;;;;;;;;341802;155;857999;-77
2022/03/12 05:13:43;;;;;;;49.22;19.38;;;;;;;;;;347792;150;864279;-77
2022/03/12 05:14:48;;;;;;;40.89;18.85;;;;;;;;;;350366;153;865650;-77
2022/03/12 05:15:55;;;;;;;45.22;19.61;;;;;;;;;;348186;152;864388;-78
2022/03/12 05:16:57;;;;;;;39.19;18.07;;;;;;;;;;345743;152;857769;-77
2022/03/12 05:18:01;;;;;;;44.89;19.01;;;;;;;;;;340313;155;856996;-75
2022/03/12 05:19:06;;;;;;;43.05;18.51;;;;;;;;;;335326;155;857205;-76
2022/03/12 05:20:09;;;;;;;46.28;18.82;;;;;;;;;;341993;152;864528;-78
2022/03/12 05:21:12;;;;;;;38.21;18.38;;;;;;;;;;345041;155;858983;-77
2022/03/12 05:22:14;;;;;;;47.27;19.96;;;;;;;;;;338311;156;857012;-77
2022/03/12 05:23:16;;;;;;;48.35;19.66;;;;;;;;;;338495;156;857463;-76
2022/03/12 05:24:19;;;;;;;47.88;20.47;;;;;;;;;;320975;163;856830;-77
2022/03/12 05:25:21;;;;;;;43.98;20.44;;;;;;;;;;323026;158;857852;-79
2022/03/12 05:26:24;;;;;;;46.66;20.76;;;;;;;;;;340222;153;857421;-79
2022/03/12 05:27:26;;;;;;;50.07;19.57;;;;;;;;;;338575;159;858827;-76
2022/03/12 05:28:35;;;;;;;49.63;19.23;;;;;;;;;;327469;160;857413;-77
2022/03/12 05:29:34;;;;;;;50.36;21.44;;;;;;;;;;335009;158;857026;-78
2022/03/12 05:30:37;;;;;;;49.29;20.44;;;;;;;;;;335796;158;864768;-78
2022/03/12 05:31:39;;;;;;;49.03;21.85;;;;;;;;;;334592;158;857708;-78
2022/03/12 05:32:40;;;;;;;47.07;20.58;;;;;;;;;;323890;161;860138;-77
2022/03/12 05:33:46;;;;;;;50.25;20.56;;;;;;;;;;329347;158;856665;-77
2022/03/12 05:34:48;;;;;;;46.24;19.20;;;;;;;;;;333869;158;857058;-77
2022/03/12 05:35:54;;;;;;;50.37;20.09;;;;;;;;;;323766;162;864961;-77
2022/03/12 05:36:55;;;;;;;47.38;19.07;;;;;;;;;;326605;152;859674;-77
2022/03/12 05:37:57;;;;;;;44.57;17.21;;;;;;;;;;336450;157;866862;-77
2022/03/12 05:38:59;;;;;;;50.27;20.13;;;;;;;;;;328645;161;858989;-76
2022/03/12 05:40:02;;;;;;;48.11;19.85;;;;;;;;;;326538;159;857405;-77
2022/03/12 05:41:09;;;;;;;42.39;18.28;;;;;;;;;;325454;160;858701;-77
2022/03/12 05:42:11;;;;;;;41.13;17.76;;;;;;;;;;325147;160;864802;-78
2022/03/12 05:43:15;;;;;;;44.49;18.76;;;;;;;;;;332726;156;857018;-78
2022/03/12 05:44:17;;;;;;;42.24;18.91;;;;;;;;;;338021;155;856951;-76
2022/03/12 05:45:21;;;;;;;40.58;17.03;;;;;;;;;;339152;157;864553;-78
2022/03/12 05:46:24;;;;;;;39.41;17.18;;;;;;;;;;332514;156;857043;-77
2022/03/12 05:47:26;;;;;;;39.47;16.77;;;;;;;;;;332507;156;856706;-76
2022/03/12 05:48:28;;;;;;;32.40;14.66;;;;;;;;;;328096;159;857005;-78
2022/03/12 05:49:30;;;;;;;38.23;16.82;;;;;;;;;;326553;162;864494;-77
2022/03/12 05:50:34;;;;;;;40.95;15.77;;;;;;;;;;327911;159;857142;-77
2022/03/12 05:51:36;;;;;;;40.60;16.09;;;;;;;;;;328055;157;856876;-78
2022/03/12 05:52:39;;;;;;;52.14;18.37;;;;;;;;;;328447;159;857488;-76
2022/03/12 05:53:43;;;;;;;47.01;16.97;;;;;;;;;;323078;161;857034;-77
2022/03/12 05:54:48;;;;;;;26.24;11.08;;;;;;;;;;322505;159;856723;-77
2022/03/12 05:55:51;;;;;;;51.36;17.72;;;;;;;;;;328164;158;865444;-77
2022/03/12 05:56:54;;;;;;;41.01;15.89;;;;;;;;;;337616;158;857970;-77
2022/03/12 05:57:57;;;;;;;39.42;16.27;;;;;;;;;;328519;158;858952;-77
2022/03/12 05:59:00;;;;;;;47.20;17.07;;;;;;;;;;323132;163;857185;-77
2022/03/12 06:00:04;;;;;;;35.59;14.23;;;;;;;;;;328451;155;856935;-75
2022/03/12 06:01:07;;;;;;;43.37;16.08;;;;;;;;;;339622;155;857429;-77
2022/03/12 06:02:09;;;;;;;48.41;16.07;;;;;;;;;;341193;155;856620;-79
2022/03/12 06:03:12;;;;;;;42.77;16.09;;;;;;;;;;330385;162;856746;-75
2022/03/12 06:04:25;;;;;;;49.59;16.42;;;;;;;;;;327232;155;857425;-77
2022/03/12 06:05:19;;;;;;;43.40;15.32;;;;;;;;;;340121;155;857107;-76
2022/03/12 06:06:24;;;;;;;43.56;15.93;;;;;;;;;;335715;155;857543;-76
2022/03/12 06:07:27;;;;;;;41.92;15.54;;;;;;;;;;339437;157;857197;-77
2022/03/12 06:08:30;;;;;;;40.88;16.07;;;;;;;;;;330982;158;856610;-77
2022/03/12 06:09:32;;;;;;;37.06;15.09;;;;;;;;;;328598;160;858669;-77
2022/03/12 06:10:35;;;;;;;36.55;13.65;;;;;;;;;;328717;158;856989;-77
2022/03/12 06:11:42;;;;;;;42.43;15.93;;;;;;;;;;334234;156;858172;-76
2022/03/12 06:12:44;;;;;;;29.84;12.09;;;;;;;;;;340681;158;857646;-78
2022/03/12 06:13:53;;;;;;;37.73;14.38;;;;;;;;;;335528;155;858541;-78
2022/03/12 06:14:52;;;;;;;41.22;15.66;;;;;;;;;;339616;155;857070;-80
2022/03/12 06:16:02;;;;;;;40.09;14.94;;;;;;;;;;325833;161;864320;-77
2022/03/12 06:17:04;;;;;;;33.02;14.16;;;;;;;;;;328443;159;864708;-77